sensor_id;sensor_type;location;lat;lon;timestamp;temperature;humidity
79020;DHT22;72857;44.740;37.770;2023-10-31T00:00:16;14.11;69.77
79020;DHT22;72857;44.740;37.770;2023-10-31T00:01:17;14.08;69.88
79020;DHT22;72857;44.740;37.770;2023-10-31T00:02:19;14.08;69.95
79020;DHT22;72857;44.740;37.770;2023-10-31T00:03:21;14.06;69.81
79020;DHT22;72857;44.740;37.770;2023-10-31T00:04:22;14.07;70.05
79020;DHT22;72857;44.740;37.770;2023-10-31T00:05:23;14.08;70.02
79020;DHT22;72857;44.740;37.770;2023-10-31T00:06:24;14.10;70.19
79020;DHT22;72857;44.740;37.770;2023-10-31T00:07:26;14.10;69.94
79020;DHT22;72857;44.740;37.770;2023-10-31T00:08:27;14.08;70.09
79020;DHT22;72857;44.740;37.770;2023-10-31T00:09:28;14.06;70.16
79020;DHT22;72857;44.740;37.770;2023-10-31T00:10:30;14.06;70.67
79020;DHT22;72857;44.740;37.770;2023-10-31T00:11:31;14.03;71.01
79020;DHT22;72857;44.740;37.770;2023-10-31T00:12:32;13.98;71.14
79020;DHT22;72857;44.740;37.770;2023-10-31T00:13:34;13.98;70.79
79020;DHT22;72857;44.740;37.770;2023-10-31T00:14:35;13.98;70.52
79020;DHT22;72857;44.740;37.770;2023-10-31T00:15:36;13.97;70.46
79020;DHT22;72857;44.740;37.770;2023-10-31T00:16:38;13.97;70.58
79020;DHT22;72857;44.740;37.770;2023-10-31T00:17:39;14.00;70.59
79020;DHT22;72857;44.740;37.770;2023-10-31T00:18:40;14.03;70.15
79020;DHT22;72857;44.740;37.770;2023-10-31T00:19:42;14.00;70.74
79020;DHT22;72857;44.740;37.770;2023-10-31T00:20:46;13.98;70.31
79020;DHT22;72857;44.740;37.770;2023-10-31T00:21:47;13.97;70.90
79020;DHT22;72857;44.740;37.770;2023-10-31T00:22:49;13.96;70.45
79020;DHT22;72857;44.740;37.770;2023-10-31T00:23:50;13.98;70.47
79020;DHT22;72857;44.740;37.770;2023-10-31T00:24:52;13.98;70.02
79020;DHT22;72857;44.740;37.770;2023-10-31T00:25:53;14.00;69.85
79020;DHT22;72857;44.740;37.770;2023-10-31T00:26:54;14.00;69.91
79020;DHT22;72857;44.740;37.770;2023-10-31T00:27:55;13.98;69.96
79020;DHT22;72857;44.740;37.770;2023-10-31T00:28:57;14.01;70.04
79020;DHT22;72857;44.740;37.770;2023-10-31T00:29:58;14.01;69.78
79020;DHT22;72857;44.740;37.770;2023-10-31T00:30:59;14.01;69.67
79020;DHT22;72857;44.740;37.770;2023-10-31T00:32:01;14.04;69.57
79020;DHT22;72857;44.740;37.770;2023-10-31T00:33:03;14.03;69.70
79020;DHT22;72857;44.740;37.770;2023-10-31T00:34:05;14.06;69.16
79020;DHT22;72857;44.740;37.770;2023-10-31T00:35:07;14.06;69.16
79020;DHT22;72857;44.740;37.770;2023-10-31T00:36:08;14.10;69.29
79020;DHT22;72857;44.740;37.770;2023-10-31T00:37:10;14.10;69.69
79020;DHT22;72857;44.740;37.770;2023-10-31T00:38:11;14.11;70.12
79020;DHT22;72857;44.740;37.770;2023-10-31T00:39:12;14.13;69.54
79020;DHT22;72857;44.740;37.770;2023-10-31T00:40:13;14.11;69.16
79020;DHT22;72857;44.740;37.770;2023-10-31T00:41:17;14.07;69.38
79020;DHT22;72857;44.740;37.770;2023-10-31T00:42:18;14.06;69.35
79020;DHT22;72857;44.740;37.770;2023-10-31T00:43:20;14.04;69.17
79020;DHT22;72857;44.740;37.770;2023-10-31T00:44:21;14.06;69.60
79020;DHT22;72857;44.740;37.770;2023-10-31T00:45:22;14.07;69.94
79020;DHT22;72857;44.740;37.770;2023-10-31T00:46:23;14.06;69.86
79020;DHT22;72857;44.740;37.770;2023-10-31T00:47:25;14.07;69.46
79020;DHT22;72857;44.740;37.770;2023-10-31T00:48:26;14.04;69.36
79020;DHT22;72857;44.740;37.770;2023-10-31T00:49:28;14.04;69.59
79020;DHT22;72857;44.740;37.770;2023-10-31T00:50:29;14.04;69.16
79020;DHT22;72857;44.740;37.770;2023-10-31T00:51:31;14.03;69.76
79020;DHT22;72857;44.740;37.770;2023-10-31T00:52:32;13.96;70.14
79020;DHT22;72857;44.740;37.770;2023-10-31T00:53:33;13.94;70.44
79020;DHT22;72857;44.740;37.770;2023-10-31T00:54:35;13.87;69.68
79020;DHT22;72857;44.740;37.770;2023-10-31T00:55:39;13.84;70.15
79020;DHT22;72857;44.740;37.770;2023-10-31T00:56:40;13.81;70.15
79020;DHT22;72857;44.740;37.770;2023-10-31T00:57:41;13.83;70.32
79020;DHT22;72857;44.740;37.770;2023-10-31T00:58:43;13.78;70.59
79020;DHT22;72857;44.740;37.770;2023-10-31T00:59:44;13.78;71.03
79020;DHT22;72857;44.740;37.770;2023-10-31T01:00:45;13.69;71.15
79020;DHT22;72857;44.740;37.770;2023-10-31T01:01:46;13.67;71.16
79020;DHT22;72857;44.740;37.770;2023-10-31T01:02:48;13.66;71.23
79020;DHT22;72857;44.740;37.770;2023-10-31T01:03:49;13.66;71.41
79020;DHT22;72857;44.740;37.770;2023-10-31T01:04:50;13.63;70.81
79020;DHT22;72857;44.740;37.770;2023-10-31T01:05:51;13.57;70.35
79020;DHT22;72857;44.740;37.770;2023-10-31T01:06:53;13.57;70.41
79020;DHT22;72857;44.740;37.770;2023-10-31T01:07:54;13.57;71.14
79020;DHT22;72857;44.740;37.770;2023-10-31T01:08:56;13.57;71.18
79020;DHT22;72857;44.740;37.770;2023-10-31T01:09:57;13.53;71.07
79020;DHT22;72857;44.740;37.770;2023-10-31T01:10:58;13.55;71.39
79020;DHT22;72857;44.740;37.770;2023-10-31T01:11:59;13.55;70.72
79020;DHT22;72857;44.740;37.770;2023-10-31T01:13:00;13.59;70.64
79020;DHT22;72857;44.740;37.770;2023-10-31T01:14:03;13.59;70.63
79020;DHT22;72857;44.740;37.770;2023-10-31T01:15:05;13.57;70.97
79020;DHT22;72857;44.740;37.770;2023-10-31T01:16:07;13.53;70.84
79020;DHT22;72857;44.740;37.770;2023-10-31T01:17:09;13.50;70.85
79020;DHT22;72857;44.740;37.770;2023-10-31T01:18:10;13.50;70.79
79020;DHT22;72857;44.740;37.770;2023-10-31T01:19:11;13.53;70.68
79020;DHT22;72857;44.740;37.770;2023-10-31T01:20:12;13.53;70.93
79020;DHT22;72857;44.740;37.770;2023-10-31T01:21:14;13.53;70.88
79020;DHT22;72857;44.740;37.770;2023-10-31T01:22:15;13.50;70.93
79020;DHT22;72857;44.740;37.770;2023-10-31T01:23:16;13.53;70.84
79020;DHT22;72857;44.740;37.770;2023-10-31T01:24:18;13.53;70.76
79020;DHT22;72857;44.740;37.770;2023-10-31T01:25:19;13.55;70.80
79020;DHT22;72857;44.740;37.770;2023-10-31T01:26:20;13.50;70.89
79020;DHT22;72857;44.740;37.770;2023-10-31T01:27:21;13.46;70.81
79020;DHT22;72857;44.740;37.770;2023-10-31T01:28:23;13.50;70.56
79020;DHT22;72857;44.740;37.770;2023-10-31T01:29:25;13.55;70.45
79020;DHT22;72857;44.740;37.770;2023-10-31T01:30:26;13.47;70.97
79020;DHT22;72857;44.740;37.770;2023-10-31T01:31:27;13.46;70.84
79020;DHT22;72857;44.740;37.770;2023-10-31T01:32:29;13.46;70.98
79020;DHT22;72857;44.740;37.770;2023-10-31T01:33:30;13.42;70.79
79020;DHT22;72857;44.740;37.770;2023-10-31T01:34:31;13.39;70.88
79020;DHT22;72857;44.740;37.770;2023-10-31T01:35:33;13.36;71.28
79020;DHT22;72857;44.740;37.770;2023-10-31T01:36:34;13.36;71.40
79020;DHT22;72857;44.740;37.770;2023-10-31T01:37:35;13.34;71.40
79020;DHT22;72857;44.740;37.770;2023-10-31T01:38:37;13.32;71.48
79020;DHT22;72857;44.740;37.770;2023-10-31T01:39:38;13.28;71.84
79020;DHT22;72857;44.740;37.770;2023-10-31T01:40:40;13.32;71.44
79020;DHT22;72857;44.740;37.770;2023-10-31T01:41:42;13.34;71.05
79020;DHT22;72857;44.740;37.770;2023-10-31T01:42:43;13.30;70.91
79020;DHT22;72857;44.740;37.770;2023-10-31T01:43:45;13.34;71.11
79020;DHT22;72857;44.740;37.770;2023-10-31T01:44:46;13.34;71.21
79020;DHT22;72857;44.740;37.770;2023-10-31T01:45:48;13.25;71.31
79020;DHT22;72857;44.740;37.770;2023-10-31T01:46:49;13.22;71.31
79020;DHT22;72857;44.740;37.770;2023-10-31T01:47:51;13.22;71.36
79020;DHT22;72857;44.740;37.770;2023-10-31T01:48:53;13.23;71.61
79020;DHT22;72857;44.740;37.770;2023-10-31T01:49:54;13.20;71.67
79020;DHT22;72857;44.740;37.770;2023-10-31T01:51:00;13.18;71.64
79020;DHT22;72857;44.740;37.770;2023-10-31T01:52:03;13.15;71.45
79020;DHT22;72857;44.740;37.770;2023-10-31T01:53:05;13.11;71.49
79020;DHT22;72857;44.740;37.770;2023-10-31T01:54:06;13.11;71.35
79020;DHT22;72857;44.740;37.770;2023-10-31T01:55:10;13.15;71.33
79020;DHT22;72857;44.740;37.770;2023-10-31T01:56:12;13.15;71.37
79020;DHT22;72857;44.740;37.770;2023-10-31T01:57:14;13.12;71.42
79020;DHT22;72857;44.740;37.770;2023-10-31T01:58:18;13.11;71.53
79020;DHT22;72857;44.740;37.770;2023-10-31T01:59:20;13.04;71.96
79020;DHT22;72857;44.740;37.770;2023-10-31T02:00:22;12.99;72.14
79020;DHT22;72857;44.740;37.770;2023-10-31T02:01:23;12.94;71.85
79020;DHT22;72857;44.740;37.770;2023-10-31T02:02:25;12.94;71.74
79020;DHT22;72857;44.740;37.770;2023-10-31T02:03:30;12.81;71.84
79020;DHT22;72857;44.740;37.770;2023-10-31T02:04:31;12.73;72.20
79020;DHT22;72857;44.740;37.770;2023-10-31T02:05:33;12.67;72.47
79020;DHT22;72857;44.740;37.770;2023-10-31T02:06:35;12.63;72.66
79020;DHT22;72857;44.740;37.770;2023-10-31T02:07:36;12.60;72.92
79020;DHT22;72857;44.740;37.770;2023-10-31T02:08:38;12.64;73.05
79020;DHT22;72857;44.740;37.770;2023-10-31T02:09:39;12.65;73.17
79020;DHT22;72857;44.740;37.770;2023-10-31T02:10:40;12.69;73.02
79020;DHT22;72857;44.740;37.770;2023-10-31T02:11:41;12.69;73.06
79020;DHT22;72857;44.740;37.770;2023-10-31T02:12:43;12.73;72.98
79020;DHT22;72857;44.740;37.770;2023-10-31T02:13:45;12.75;73.03
79020;DHT22;72857;44.740;37.770;2023-10-31T02:14:46;12.75;73.06
79020;DHT22;72857;44.740;37.770;2023-10-31T02:15:47;12.77;72.79
79020;DHT22;72857;44.740;37.770;2023-10-31T02:16:49;12.80;72.60
79020;DHT22;72857;44.740;37.770;2023-10-31T02:17:50;12.83;72.78
79020;DHT22;72857;44.740;37.770;2023-10-31T02:18:52;12.83;72.58
79020;DHT22;72857;44.740;37.770;2023-10-31T02:19:54;12.85;72.27
79020;DHT22;72857;44.740;37.770;2023-10-31T02:20:55;12.81;72.64
79020;DHT22;72857;44.740;37.770;2023-10-31T02:21:57;12.83;72.17
79020;DHT22;72857;44.740;37.770;2023-10-31T02:22:59;12.83;72.12
79020;DHT22;72857;44.740;37.770;2023-10-31T02:24:03;12.88;72.17
79020;DHT22;72857;44.740;37.770;2023-10-31T02:25:16;12.88;72.11
79020;DHT22;72857;44.740;37.770;2023-10-31T02:26:18;12.88;72.11
79020;DHT22;72857;44.740;37.770;2023-10-31T02:27:20;12.92;72.30
79020;DHT22;72857;44.740;37.770;2023-10-31T02:28:21;12.92;72.21
79020;DHT22;72857;44.740;37.770;2023-10-31T02:29:23;12.98;72.37
79020;DHT22;72857;44.740;37.770;2023-10-31T02:30:24;12.95;72.22
79020;DHT22;72857;44.740;37.770;2023-10-31T02:31:26;12.99;72.35
79020;DHT22;72857;44.740;37.770;2023-10-31T02:32:27;13.02;72.25
79020;DHT22;72857;44.740;37.770;2023-10-31T02:33:29;13.04;71.85
79020;DHT22;72857;44.740;37.770;2023-10-31T02:34:32;13.06;71.85
79020;DHT22;72857;44.740;37.770;2023-10-31T02:35:33;13.06;71.92
79020;DHT22;72857;44.740;37.770;2023-10-31T02:36:34;13.11;71.66
79020;DHT22;72857;44.740;37.770;2023-10-31T02:37:36;13.12;71.76
79020;DHT22;72857;44.740;37.770;2023-10-31T02:38:37;13.14;71.71
79020;DHT22;72857;44.740;37.770;2023-10-31T02:39:40;13.22;71.94
79020;DHT22;72857;44.740;37.770;2023-10-31T02:40:41;13.23;71.41
79020;DHT22;72857;44.740;37.770;2023-10-31T02:41:43;13.23;71.41
79020;DHT22;72857;44.740;37.770;2023-10-31T02:42:44;13.29;71.15
79020;DHT22;72857;44.740;37.770;2023-10-31T02:43:45;13.28;70.82
79020;DHT22;72857;44.740;37.770;2023-10-31T02:44:47;13.32;71.10
79020;DHT22;72857;44.740;37.770;2023-10-31T02:45:50;13.32;71.53
79020;DHT22;72857;44.740;37.770;2023-10-31T02:46:52;13.32;70.45
79020;DHT22;72857;44.740;37.770;2023-10-31T02:47:53;13.43;78.11
79020;DHT22;72857;44.740;37.770;2023-10-31T02:48:55;13.62;70.50
79020;DHT22;72857;44.740;37.770;2023-10-31T02:49:56;13.59;69.96
79020;DHT22;72857;44.740;37.770;2023-10-31T02:50:57;13.52;70.29
79020;DHT22;72857;44.740;37.770;2023-10-31T02:51:59;13.46;70.34
79020;DHT22;72857;44.740;37.770;2023-10-31T02:53:00;13.43;70.18
79020;DHT22;72857;44.740;37.770;2023-10-31T02:54:01;13.36;70.39
79020;DHT22;72857;44.740;37.770;2023-10-31T02:55:02;13.30;70.76
79020;DHT22;72857;44.740;37.770;2023-10-31T02:56:06;13.28;70.83
79020;DHT22;72857;44.740;37.770;2023-10-31T02:57:07;13.25;71.00
79020;DHT22;72857;44.740;37.770;2023-10-31T02:58:09;13.22;70.31
79020;DHT22;72857;44.740;37.770;2023-10-31T02:59:11;13.22;70.86
79020;DHT22;72857;44.740;37.770;2023-10-31T03:00:13;13.20;71.27
79020;DHT22;72857;44.740;37.770;2023-10-31T03:01:14;13.19;71.41
79020;DHT22;72857;44.740;37.770;2023-10-31T03:02:17;13.18;70.85
79020;DHT22;72857;44.740;37.770;2023-10-31T03:03:19;13.19;70.89
79020;DHT22;72857;44.740;37.770;2023-10-31T03:04:20;13.16;71.02
79020;DHT22;72857;44.740;37.770;2023-10-31T03:05:21;13.14;70.88
79020;DHT22;72857;44.740;37.770;2023-10-31T03:06:24;13.16;70.86
79020;DHT22;72857;44.740;37.770;2023-10-31T03:07:25;13.11;70.96
79020;DHT22;72857;44.740;37.770;2023-10-31T03:08:26;13.15;71.26
79020;DHT22;72857;44.740;37.770;2023-10-31T03:09:29;13.19;71.00
79020;DHT22;72857;44.740;37.770;2023-10-31T03:10:30;13.16;70.90
79020;DHT22;72857;44.740;37.770;2023-10-31T03:11:32;13.14;71.12
79020;DHT22;72857;44.740;37.770;2023-10-31T03:12:34;13.11;71.51
79020;DHT22;72857;44.740;37.770;2023-10-31T03:13:35;13.09;71.25
79020;DHT22;72857;44.740;37.770;2023-10-31T03:14:36;13.11;71.02
79020;DHT22;72857;44.740;37.770;2023-10-31T03:15:38;13.08;70.96
79020;DHT22;72857;44.740;37.770;2023-10-31T03:16:40;13.02;71.43
79020;DHT22;72857;44.740;37.770;2023-10-31T03:17:41;13.04;71.38
79020;DHT22;72857;44.740;37.770;2023-10-31T03:18:43;13.01;71.47
79020;DHT22;72857;44.740;37.770;2023-10-31T03:19:44;13.02;71.56
79020;DHT22;72857;44.740;37.770;2023-10-31T03:20:45;12.98;72.49
79020;DHT22;72857;44.740;37.770;2023-10-31T03:21:48;12.95;72.40
79020;DHT22;72857;44.740;37.770;2023-10-31T03:22:50;12.92;71.92
79020;DHT22;72857;44.740;37.770;2023-10-31T03:23:53;12.94;71.56
79020;DHT22;72857;44.740;37.770;2023-10-31T03:24:56;12.95;71.56
79020;DHT22;72857;44.740;37.770;2023-10-31T03:25:58;12.95;71.60
79020;DHT22;72857;44.740;37.770;2023-10-31T03:26:59;12.92;71.67
79020;DHT22;72857;44.740;37.770;2023-10-31T03:28:01;12.89;71.81
79020;DHT22;72857;44.740;37.770;2023-10-31T03:29:03;12.87;71.73
79020;DHT22;72857;44.740;37.770;2023-10-31T03:30:05;12.85;71.71
79020;DHT22;72857;44.740;37.770;2023-10-31T03:31:09;12.81;72.07
79020;DHT22;72857;44.740;37.770;2023-10-31T03:32:11;12.83;71.88
79020;DHT22;72857;44.740;37.770;2023-10-31T03:33:12;12.83;71.84
79020;DHT22;72857;44.740;37.770;2023-10-31T03:34:14;12.80;71.99
79020;DHT22;72857;44.740;37.770;2023-10-31T03:35:15;12.78;72.46
79020;DHT22;72857;44.740;37.770;2023-10-31T03:36:16;12.80;71.93
79020;DHT22;72857;44.740;37.770;2023-10-31T03:37:18;12.78;71.70
79020;DHT22;72857;44.740;37.770;2023-10-31T03:38:20;12.75;71.75
79020;DHT22;72857;44.740;37.770;2023-10-31T03:39:21;12.78;72.08
79020;DHT22;72857;44.740;37.770;2023-10-31T03:40:22;12.81;71.73
79020;DHT22;72857;44.740;37.770;2023-10-31T03:41:24;12.80;71.50
79020;DHT22;72857;44.740;37.770;2023-10-31T03:42:25;12.75;71.71
79020;DHT22;72857;44.740;37.770;2023-10-31T03:43:27;12.78;71.68
79020;DHT22;72857;44.740;37.770;2023-10-31T03:44:28;12.77;72.20
79020;DHT22;72857;44.740;37.770;2023-10-31T03:45:30;12.78;71.96
79020;DHT22;72857;44.740;37.770;2023-10-31T03:46:31;12.73;72.47
79020;DHT22;72857;44.740;37.770;2023-10-31T03:47:33;12.75;73.03
79020;DHT22;72857;44.740;37.770;2023-10-31T03:48:34;12.74;72.24
79020;DHT22;72857;44.740;37.770;2023-10-31T03:49:41;12.75;71.98
79020;DHT22;72857;44.740;37.770;2023-10-31T03:50:43;12.73;72.22
79020;DHT22;72857;44.740;37.770;2023-10-31T03:51:44;12.73;71.75
79020;DHT22;72857;44.740;37.770;2023-10-31T03:52:46;12.74;71.84
79020;DHT22;72857;44.740;37.770;2023-10-31T03:53:48;12.71;72.04
79020;DHT22;72857;44.740;37.770;2023-10-31T03:54:50;12.73;72.14
79020;DHT22;72857;44.740;37.770;2023-10-31T03:55:52;12.75;71.93
79020;DHT22;72857;44.740;37.770;2023-10-31T03:56:53;12.75;71.92
79020;DHT22;72857;44.740;37.770;2023-10-31T03:57:54;12.74;72.04
79020;DHT22;72857;44.740;37.770;2023-10-31T03:58:56;12.74;71.64
79020;DHT22;72857;44.740;37.770;2023-10-31T03:59:57;12.78;72.71
79020;DHT22;72857;44.740;37.770;2023-10-31T04:00:59;12.75;72.24
79020;DHT22;72857;44.740;37.770;2023-10-31T04:02:01;12.77;72.27
79020;DHT22;72857;44.740;37.770;2023-10-31T04:03:02;12.75;72.03
79020;DHT22;72857;44.740;37.770;2023-10-31T04:04:03;12.78;72.02
79020;DHT22;72857;44.740;37.770;2023-10-31T04:05:05;12.81;71.87
79020;DHT22;72857;44.740;37.770;2023-10-31T04:06:10;12.87;71.64
79020;DHT22;72857;44.740;37.770;2023-10-31T04:07:11;12.88;71.65
79020;DHT22;72857;44.740;37.770;2023-10-31T04:08:12;12.84;71.35
79020;DHT22;72857;44.740;37.770;2023-10-31T04:09:14;12.87;71.27
79020;DHT22;72857;44.740;37.770;2023-10-31T04:10:16;12.89;71.38
79020;DHT22;72857;44.740;37.770;2023-10-31T04:11:17;12.91;71.28
79020;DHT22;72857;44.740;37.770;2023-10-31T04:12:19;12.89;71.34
79020;DHT22;72857;44.740;37.770;2023-10-31T04:13:21;12.91;71.50
79020;DHT22;72857;44.740;37.770;2023-10-31T04:14:22;12.92;70.73
79020;DHT22;72857;44.740;37.770;2023-10-31T04:15:23;12.91;70.92
79020;DHT22;72857;44.740;37.770;2023-10-31T04:16:26;12.92;71.19
79020;DHT22;72857;44.740;37.770;2023-10-31T04:17:28;12.88;70.90
79020;DHT22;72857;44.740;37.770;2023-10-31T04:18:30;12.87;71.45
79020;DHT22;72857;44.740;37.770;2023-10-31T04:19:33;12.85;71.25
79020;DHT22;72857;44.740;37.770;2023-10-31T04:20:34;12.88;70.91
79020;DHT22;72857;44.740;37.770;2023-10-31T04:21:38;12.89;70.83
79020;DHT22;72857;44.740;37.770;2023-10-31T04:22:40;12.88;70.83
79020;DHT22;72857;44.740;37.770;2023-10-31T04:23:42;12.89;70.83
79020;DHT22;72857;44.740;37.770;2023-10-31T04:24:44;12.89;70.59
79020;DHT22;72857;44.740;37.770;2023-10-31T04:25:45;12.92;71.08
79020;DHT22;72857;44.740;37.770;2023-10-31T04:26:47;12.95;70.95
79020;DHT22;72857;44.740;37.770;2023-10-31T04:27:48;12.95;70.62
79020;DHT22;72857;44.740;37.770;2023-10-31T04:28:51;12.89;70.99
79020;DHT22;72857;44.740;37.770;2023-10-31T04:29:52;12.87;70.90
79020;DHT22;72857;44.740;37.770;2023-10-31T04:30:53;12.85;70.84
79020;DHT22;72857;44.740;37.770;2023-10-31T04:31:54;12.83;70.96
79020;DHT22;72857;44.740;37.770;2023-10-31T04:32:56;12.81;70.85
79020;DHT22;72857;44.740;37.770;2023-10-31T04:33:57;12.81;71.08
79020;DHT22;72857;44.740;37.770;2023-10-31T04:34:58;12.80;70.85
79020;DHT22;72857;44.740;37.770;2023-10-31T04:35:59;12.80;70.34
79020;DHT22;72857;44.740;37.770;2023-10-31T04:37:03;12.75;70.60
79020;DHT22;72857;44.740;37.770;2023-10-31T04:38:04;12.75;70.60
79020;DHT22;72857;44.740;37.770;2023-10-31T04:39:06;12.71;70.63
79020;DHT22;72857;44.740;37.770;2023-10-31T04:40:07;12.77;70.51
79020;DHT22;72857;44.740;37.770;2023-10-31T04:41:09;12.81;70.56
79020;DHT22;72857;44.740;37.770;2023-10-31T04:42:10;12.84;70.46
79020;DHT22;72857;44.740;37.770;2023-10-31T04:43:12;12.87;70.46
79020;DHT22;72857;44.740;37.770;2023-10-31T04:44:13;12.91;70.36
79020;DHT22;72857;44.740;37.770;2023-10-31T04:45:14;12.92;70.51
79020;DHT22;72857;44.740;37.770;2023-10-31T04:46:16;12.94;70.48
79020;DHT22;72857;44.740;37.770;2023-10-31T04:47:17;12.94;70.38
79020;DHT22;72857;44.740;37.770;2023-10-31T04:48:20;12.98;70.00
79020;DHT22;72857;44.740;37.770;2023-10-31T04:49:21;13.01;70.10
79020;DHT22;72857;44.740;37.770;2023-10-31T04:50:22;13.02;70.07
79020;DHT22;72857;44.740;37.770;2023-10-31T04:51:24;13.05;69.86
79020;DHT22;72857;44.740;37.770;2023-10-31T04:52:25;13.08;69.52
79020;DHT22;72857;44.740;37.770;2023-10-31T04:53:27;13.09;69.64
79020;DHT22;72857;44.740;37.770;2023-10-31T04:54:28;13.12;69.98
79020;DHT22;72857;44.740;37.770;2023-10-31T04:55:29;13.14;69.66
79020;DHT22;72857;44.740;37.770;2023-10-31T04:56:30;13.15;69.30
79020;DHT22;72857;44.740;37.770;2023-10-31T04:57:32;13.19;69.84
79020;DHT22;72857;44.740;37.770;2023-10-31T04:58:33;13.28;69.18
79020;DHT22;72857;44.740;37.770;2023-10-31T04:59:34;13.32;68.53
79020;DHT22;72857;44.740;37.770;2023-10-31T05:00:35;13.35;68.36
79020;DHT22;72857;44.740;37.770;2023-10-31T05:01:37;13.45;68.38
79020;DHT22;72857;44.740;37.770;2023-10-31T05:02:38;13.47;68.38
79020;DHT22;72857;44.740;37.770;2023-10-31T05:03:41;13.50;68.06
79020;DHT22;72857;44.740;37.770;2023-10-31T05:04:42;13.50;68.75
79020;DHT22;72857;44.740;37.770;2023-10-31T05:05:43;13.57;67.71
79020;DHT22;72857;44.740;37.770;2023-10-31T05:06:45;13.57;67.26
79020;DHT22;72857;44.740;37.770;2023-10-31T05:07:46;13.63;67.31
79020;DHT22;72857;44.740;37.770;2023-10-31T05:08:48;13.67;66.61
79020;DHT22;72857;44.740;37.770;2023-10-31T05:09:49;13.70;66.25
79020;DHT22;72857;44.740;37.770;2023-10-31T05:10:51;13.76;66.20
79020;DHT22;72857;44.740;37.770;2023-10-31T05:11:52;13.80;66.44
79020;DHT22;72857;44.740;37.770;2023-10-31T05:12:53;13.84;66.24
79020;DHT22;72857;44.740;37.770;2023-10-31T05:13:55;13.87;67.15
79020;DHT22;72857;44.740;37.770;2023-10-31T05:14:56;13.91;66.29
79020;DHT22;72857;44.740;37.770;2023-10-31T05:15:58;13.98;65.80
79020;DHT22;72857;44.740;37.770;2023-10-31T05:16:59;14.04;65.41
79020;DHT22;72857;44.740;37.770;2023-10-31T05:18:01;14.15;65.66
79020;DHT22;72857;44.740;37.770;2023-10-31T05:19:02;14.20;64.95
79020;DHT22;72857;44.740;37.770;2023-10-31T05:20:05;14.28;65.38
79020;DHT22;72857;44.740;37.770;2023-10-31T05:21:07;14.32;64.60
79020;DHT22;72857;44.740;37.770;2023-10-31T05:22:08;14.39;64.73
79020;DHT22;72857;44.740;37.770;2023-10-31T05:23:10;14.49;65.32
79020;DHT22;72857;44.740;37.770;2023-10-31T05:24:11;14.52;64.05
79020;DHT22;72857;44.740;37.770;2023-10-31T05:25:13;14.61;63.65
79020;DHT22;72857;44.740;37.770;2023-10-31T05:26:14;14.71;62.73
79020;DHT22;72857;44.740;37.770;2023-10-31T05:27:16;14.82;62.78
79020;DHT22;72857;44.740;37.770;2023-10-31T05:28:17;14.86;62.89
79020;DHT22;72857;44.740;37.770;2023-10-31T05:29:19;14.93;62.76
79020;DHT22;72857;44.740;37.770;2023-10-31T05:30:20;14.97;62.59
79020;DHT22;72857;44.740;37.770;2023-10-31T05:31:21;15.04;63.92
79020;DHT22;72857;44.740;37.770;2023-10-31T05:32:22;15.10;63.17
79020;DHT22;72857;44.740;37.770;2023-10-31T05:33:24;15.17;61.75
79020;DHT22;72857;44.740;37.770;2023-10-31T05:34:25;15.28;61.66
79020;DHT22;72857;44.740;37.770;2023-10-31T05:35:27;15.36;61.73
79020;DHT22;72857;44.740;37.770;2023-10-31T05:36:28;15.43;61.65
79020;DHT22;72857;44.740;37.770;2023-10-31T05:37:29;15.48;60.94
79020;DHT22;72857;44.740;37.770;2023-10-31T05:38:30;15.57;60.84
79020;DHT22;72857;44.740;37.770;2023-10-31T05:39:32;15.67;60.25
79020;DHT22;72857;44.740;37.770;2023-10-31T05:40:33;15.72;60.32
79020;DHT22;72857;44.740;37.770;2023-10-31T05:41:36;15.81;59.68
79020;DHT22;72857;44.740;37.770;2023-10-31T05:42:37;15.87;60.33
79020;DHT22;72857;44.740;37.770;2023-10-31T05:43:38;15.94;60.59
79020;DHT22;72857;44.740;37.770;2023-10-31T05:44:40;16.01;59.55
79020;DHT22;72857;44.740;37.770;2023-10-31T05:45:41;16.10;60.20
79020;DHT22;72857;44.740;37.770;2023-10-31T05:46:42;16.13;60.81
79020;DHT22;72857;44.740;37.770;2023-10-31T05:47:43;16.18;61.23
79020;DHT22;72857;44.740;37.770;2023-10-31T05:48:46;16.23;60.42
79020;DHT22;72857;44.740;37.770;2023-10-31T05:49:47;16.32;59.31
79020;DHT22;72857;44.740;37.770;2023-10-31T05:50:49;16.36;59.11
79020;DHT22;72857;44.740;37.770;2023-10-31T05:51:51;16.45;59.51
79020;DHT22;72857;44.740;37.770;2023-10-31T05:52:52;16.53;59.19
79020;DHT22;72857;44.740;37.770;2023-10-31T05:53:54;16.61;59.21
79020;DHT22;72857;44.740;37.770;2023-10-31T05:54:56;16.67;58.59
79020;DHT22;72857;44.740;37.770;2023-10-31T05:55:57;16.77;56.38
79020;DHT22;72857;44.740;37.770;2023-10-31T05:56:58;16.90;57.75
79020;DHT22;72857;44.740;37.770;2023-10-31T05:58:00;16.97;57.39
79020;DHT22;72857;44.740;37.770;2023-10-31T05:59:01;17.07;56.41
79020;DHT22;72857;44.740;37.770;2023-10-31T06:00:02;17.14;57.27
79020;DHT22;72857;44.740;37.770;2023-10-31T06:01:13;17.19;57.47
79020;DHT22;72857;44.740;37.770;2023-10-31T06:02:14;17.28;56.11
79020;DHT22;72857;44.740;37.770;2023-10-31T06:03:16;17.39;55.36
79020;DHT22;72857;44.740;37.770;2023-10-31T06:04:17;17.53;55.50
79020;DHT22;72857;44.740;37.770;2023-10-31T06:05:18;17.62;55.05
79020;DHT22;72857;44.740;37.770;2023-10-31T06:06:19;17.69;56.02
79020;DHT22;72857;44.740;37.770;2023-10-31T06:07:21;17.76;55.68
79020;DHT22;72857;44.740;37.770;2023-10-31T06:08:22;17.85;54.57
79020;DHT22;72857;44.740;37.770;2023-10-31T06:09:25;17.91;53.41
79020;DHT22;72857;44.740;37.770;2023-10-31T06:10:26;18.03;53.47
79020;DHT22;72857;44.740;37.770;2023-10-31T06:11:27;18.14;52.12
79020;DHT22;72857;44.740;37.770;2023-10-31T06:12:28;18.28;51.98
79020;DHT22;72857;44.740;37.770;2023-10-31T06:13:30;18.41;51.81
79020;DHT22;72857;44.740;37.770;2023-10-31T06:14:32;18.54;52.14
79020;DHT22;72857;44.740;37.770;2023-10-31T06:15:33;18.64;51.80
79020;DHT22;72857;44.740;37.770;2023-10-31T06:16:41;18.72;51.13
79020;DHT22;72857;44.740;37.770;2023-10-31T06:17:43;18.86;50.24
79020;DHT22;72857;44.740;37.770;2023-10-31T06:18:44;19.05;50.77
79020;DHT22;72857;44.740;37.770;2023-10-31T06:19:45;19.12;51.35
79020;DHT22;72857;44.740;37.770;2023-10-31T06:20:48;19.16;49.40
79020;DHT22;72857;44.740;37.770;2023-10-31T06:21:49;19.24;49.84
79020;DHT22;72857;44.740;37.770;2023-10-31T06:22:51;19.31;49.20